createdAt,value
2023-05-05T00:02:18.018Z,8.62
2023-05-05T00:04:46.146Z,8.64
2023-05-05T00:07:14.091Z,8.68
2023-05-05T00:09:42.972Z,8.66
2023-05-05T00:12:11.053Z,8.67
2023-05-05T00:14:38.987Z,8.68
2023-05-05T00:17:06.942Z,8.68
2023-05-05T00:19:34.900Z,8.70
2023-05-05T00:22:02.923Z,8.71
2023-05-05T00:24:31.001Z,8.67
2023-05-05T00:26:58.963Z,8.65
2023-05-05T00:29:26.918Z,8.62
2023-05-05T00:31:54.905Z,8.58
2023-05-05T00:34:22.936Z,8.52
2023-05-05T00:36:50.874Z,8.51
2023-05-05T00:39:18.875Z,8.52
2023-05-05T00:41:46.840Z,8.52
2023-05-05T00:44:15.062Z,8.58
2023-05-05T00:46:43.284Z,8.62
2023-05-05T00:49:12.498Z,8.60
2023-05-05T00:51:40.511Z,8.50
2023-05-05T00:54:08.769Z,8.51
2023-05-05T00:56:36.798Z,8.45
2023-05-05T00:59:04.808Z,8.44
2023-05-05T01:01:32.851Z,8.47
2023-05-05T01:04:01.533Z,8.53
2023-05-05T01:06:54.689Z,8.46
2023-05-05T01:09:24.924Z,8.37
2023-05-05T01:12:05.161Z,8.33
2023-05-05T01:14:43.343Z,8.28
2023-05-05T01:17:17.315Z,8.27
2023-05-05T01:19:52.568Z,8.26
2023-05-05T01:22:23.370Z,8.21
2023-05-05T01:25:06.579Z,8.16
2023-05-05T01:28:11.413Z,8.11
2023-05-05T01:31:01.762Z,8.12
2023-05-05T01:33:34.688Z,8.04
2023-05-05T01:36:07.193Z,8.00
2023-05-05T01:38:40.449Z,7.97
2023-05-05T01:41:18.956Z,7.93
2023-05-05T01:43:48.726Z,7.90
2023-05-05T01:46:16.957Z,7.85
2023-05-05T01:48:45.000Z,7.86
2023-05-05T01:51:12.974Z,7.86
2023-05-05T01:53:41.621Z,7.81
2023-05-05T01:56:10.343Z,7.79
2023-05-05T01:58:38.440Z,7.75
2023-05-05T02:01:06.439Z,7.70
2023-05-05T02:03:34.506Z,7.63
2023-05-05T02:06:02.494Z,7.66
2023-05-05T02:08:30.465Z,7.62
2023-05-05T02:10:58.449Z,7.58
2023-05-05T02:13:26.530Z,7.55
2023-05-05T02:15:54.698Z,7.55
2023-05-05T02:18:23.077Z,7.56
2023-05-05T02:20:53.204Z,7.55
2023-05-05T02:23:21.492Z,7.49
2023-05-05T02:25:50.630Z,7.49
2023-05-05T02:28:21.338Z,7.51
2023-05-05T02:30:54.513Z,7.55
2023-05-05T02:33:22.483Z,7.47
2023-05-05T02:35:51.120Z,7.45
2023-05-05T02:38:19.185Z,7.44
2023-05-05T02:40:49.201Z,7.47
2023-05-05T02:43:19.742Z,7.43
2023-05-05T02:45:47.879Z,7.42
2023-05-05T02:48:16.160Z,7.47
2023-05-05T02:50:44.100Z,7.43
2023-05-05T02:53:16.518Z,7.38
2023-05-05T02:55:52.249Z,7.43
2023-05-05T02:58:27.310Z,7.42
2023-05-05T03:01:25.860Z,7.47
2023-05-05T03:04:06.452Z,7.45
2023-05-05T03:06:39.887Z,7.43
2023-05-05T03:09:16.098Z,7.45
2023-05-05T03:11:54.981Z,7.45
2023-05-05T03:14:23.035Z,7.45
2023-05-05T03:16:51.400Z,7.46
2023-05-05T03:19:19.414Z,7.48
2023-05-05T03:21:48.695Z,7.44
2023-05-05T03:24:17.836Z,7.46
2023-05-05T03:26:50.420Z,7.45
2023-05-05T03:29:20.519Z,7.43
2023-05-05T03:31:49.028Z,7.48
2023-05-05T03:34:17.188Z,7.49
2023-05-05T03:36:47.027Z,7.50
2023-05-05T03:39:16.154Z,7.51
2023-05-05T03:41:44.234Z,7.51
2023-05-05T03:44:12.609Z,7.51
2023-05-05T03:46:40.554Z,7.51
2023-05-05T03:49:10.073Z,7.51
2023-05-05T03:51:38.443Z,7.51
2023-05-05T03:54:06.512Z,7.55
2023-05-05T03:56:34.673Z,7.58
2023-05-05T03:59:02.695Z,7.57
2023-05-05T04:01:31.800Z,7.56
2023-05-05T04:04:02.666Z,7.55
2023-05-05T04:06:31.950Z,7.62
2023-05-05T04:09:00.029Z,7.57
2023-05-05T04:11:29.389Z,7.60
2023-05-05T04:13:58.058Z,7.55
2023-05-05T04:16:26.466Z,7.62
2023-05-05T04:18:55.492Z,7.64
2023-05-05T04:21:24.211Z,7.66
2023-05-05T04:23:52.919Z,7.70
2023-05-05T04:26:21.433Z,7.71
2023-05-05T04:28:51.747Z,7.67
2023-05-05T04:31:20.191Z,7.70
2023-05-05T04:33:48.326Z,7.67
2023-05-05T04:36:16.366Z,7.79
2023-05-05T04:38:44.533Z,7.73
2023-05-05T04:41:12.974Z,7.79
2023-05-05T04:43:41.416Z,7.85
2023-05-05T04:46:09.504Z,7.82
2023-05-05T04:48:40.080Z,7.93
2023-05-05T04:51:08.332Z,7.87
2023-05-05T04:53:36.721Z,7.87
2023-05-05T04:56:04.813Z,7.88
2023-05-05T04:58:34.444Z,7.91
2023-05-05T05:01:02.368Z,7.91
2023-05-05T05:03:32.257Z,7.90
2023-05-05T05:06:00.450Z,7.84
2023-05-05T05:08:30.584Z,7.84
2023-05-05T05:10:59.420Z,7.84
2023-05-05T05:13:27.413Z,7.85
2023-05-05T05:15:55.372Z,7.87
2023-05-05T05:18:23.688Z,7.83
2023-05-05T05:20:52.127Z,7.90
2023-05-05T05:23:20.234Z,7.84
2023-05-05T05:25:48.237Z,7.85
2023-05-05T05:28:16.983Z,7.85
2023-05-05T05:30:48.871Z,7.82
2023-05-05T05:33:16.886Z,7.84
2023-05-05T05:35:47.783Z,7.82
2023-05-05T05:38:17.667Z,7.77
2023-05-05T05:40:46.138Z,7.77
2023-05-05T05:43:14.292Z,7.82
2023-05-05T05:45:42.289Z,7.81
2023-05-05T05:48:11.125Z,7.82
2023-05-05T05:50:39.330Z,7.81
2023-05-05T05:53:07.341Z,7.87
2023-05-05T05:55:35.773Z,7.81
2023-05-05T05:58:03.821Z,7.74
2023-05-05T06:00:31.862Z,7.77
2023-05-05T06:03:02.847Z,7.77
2023-05-05T06:05:32.525Z,7.75
2023-05-05T06:08:00.607Z,7.79
2023-05-05T06:10:28.777Z,7.79
2023-05-05T06:13:06.691Z,7.76
2023-05-05T06:15:35.626Z,7.76
2023-05-05T06:18:04.414Z,7.82
2023-05-05T06:20:32.430Z,7.76
2023-05-05T06:23:00.569Z,7.75
2023-05-05T06:25:29.659Z,7.73
2023-05-05T06:27:57.821Z,7.82
2023-05-05T06:30:26.372Z,7.79
2023-05-05T06:32:54.428Z,7.84
2023-05-05T06:35:22.541Z,7.72
2023-05-05T06:37:50.516Z,7.71
2023-05-05T06:40:18.596Z,7.65
2023-05-05T06:42:46.512Z,7.69
2023-05-05T06:45:17.889Z,7.63
2023-05-05T06:47:45.974Z,7.68
2023-05-05T06:50:13.994Z,7.67
2023-05-05T06:52:41.902Z,7.66
2023-05-05T06:55:10.035Z,7.71
2023-05-05T06:57:38.078Z,7.78
2023-05-05T07:00:09.826Z,7.72
2023-05-05T07:02:38.850Z,7.77
2023-05-05T07:05:07.478Z,7.87
2023-05-05T07:07:36.473Z,7.86
2023-05-05T07:10:05.102Z,7.88
2023-05-05T07:12:33.204Z,7.90
2023-05-05T07:15:07.048Z,7.94
2023-05-05T07:17:43.841Z,7.92
2023-05-05T07:20:12.336Z,7.97
2023-05-05T07:22:40.499Z,7.94
2023-05-05T07:25:08.739Z,7.99
2023-05-05T07:27:37.342Z,8.06
2023-05-05T07:30:11.138Z,8.06
2023-05-05T07:32:41.428Z,8.05
2023-05-05T07:35:09.477Z,8.24
2023-05-05T07:37:37.488Z,8.19
2023-05-05T07:40:06.331Z,8.16
2023-05-05T07:42:34.505Z,8.28
2023-05-05T07:45:02.591Z,8.35
2023-05-05T07:47:30.648Z,8.58
2023-05-05T07:49:58.741Z,8.60
2023-05-05T07:52:43.730Z,8.83
2023-05-05T07:55:14.482Z,8.80
2023-05-05T07:57:42.467Z,8.83
2023-05-05T08:00:11.422Z,8.92
2023-05-05T08:02:42.580Z,9.11
2023-05-05T08:05:11.688Z,9.18
2023-05-05T08:07:41.653Z,9.28
2023-05-05T08:10:12.202Z,9.45
2023-05-05T08:12:40.653Z,9.58
2023-05-05T08:15:09.291Z,9.74
2023-05-05T08:17:47.831Z,9.82
2023-05-05T08:20:16.615Z,9.92
2023-05-05T08:22:45.331Z,9.86
2023-05-05T08:25:13.607Z,10.10
2023-05-05T08:27:42.590Z,10.18
2023-05-05T08:30:11.247Z,10.12
2023-05-05T08:32:39.209Z,10.01
2023-05-05T08:35:08.310Z,9.94
2023-05-05T08:37:36.793Z,9.95
2023-05-05T08:40:05.586Z,9.95
2023-05-05T08:42:38.690Z,9.97
2023-05-05T08:45:08.795Z,10.10
2023-05-05T08:47:37.502Z,10.16
2023-05-05T08:50:06.337Z,10.41
2023-05-05T08:52:44.897Z,10.50
2023-05-05T08:55:15.716Z,10.77
2023-05-05T08:57:51.751Z,10.91
2023-05-05T09:00:20.050Z,11.23
2023-05-05T09:02:48.604Z,11.49
2023-05-05T09:05:16.925Z,11.24
2023-05-05T09:07:45.024Z,11.50
2023-05-05T09:10:13.117Z,11.68
2023-05-05T09:12:41.424Z,12.18
2023-05-05T09:17:59.380Z,13.05
2023-05-05T09:20:35.372Z,13.16
2023-05-05T09:23:11.337Z,13.84
2023-05-05T09:25:40.041Z,14.53
2023-05-05T09:28:12.206Z,15.02
2023-05-05T09:30:41.236Z,15.42
2023-05-05T09:33:09.455Z,15.87
2023-05-05T09:35:56.194Z,15.75
2023-05-05T09:38:24.750Z,15.56
2023-05-05T09:40:53.373Z,15.45
2023-05-05T09:43:22.183Z,15.33
2023-05-05T09:45:50.527Z,15.35
2023-05-05T09:48:26.445Z,15.83
2023-05-05T09:50:55.026Z,15.80
2023-05-05T09:53:23.827Z,16.12
2023-05-05T09:55:59.451Z,16.00
2023-05-05T09:58:28.845Z,16.37
2023-05-05T10:00:58.073Z,16.50
2023-05-05T10:03:26.394Z,15.78
2023-05-05T10:05:59.741Z,15.24
2023-05-05T10:08:29.530Z,15.63
2023-05-05T10:11:07.365Z,16.47
2023-05-05T10:13:41.093Z,17.11
2023-05-05T10:16:09.763Z,17.01
2023-05-05T10:18:38.031Z,16.54
2023-05-05T10:21:06.490Z,16.02
2023-05-05T10:23:34.601Z,16.62
2023-05-05T10:26:05.604Z,17.17
2023-05-05T10:28:34.570Z,16.93
2023-05-05T10:31:07.634Z,17.31
2023-05-05T10:33:45.428Z,16.67
2023-05-05T10:36:14.259Z,15.65
2023-05-05T10:38:42.230Z,15.46
2023-05-05T10:41:10.146Z,14.89
2023-05-05T10:43:38.531Z,15.07
2023-05-05T10:46:06.589Z,15.14
2023-05-05T10:48:37.439Z,15.26
2023-05-05T10:51:12.140Z,15.35
2023-05-05T10:53:44.840Z,14.93
2023-05-05T10:56:32.705Z,14.68
2023-05-05T10:59:01.106Z,14.55
2023-05-05T11:01:33.078Z,14.61
2023-05-05T11:04:18.157Z,14.74
2023-05-05T11:07:08.011Z,14.77
2023-05-05T11:09:38.861Z,14.83
2023-05-05T11:12:07.164Z,14.92
2023-05-05T11:14:35.568Z,15.22
2023-05-05T11:17:03.695Z,15.63
2023-05-05T11:19:43.734Z,15.81
2023-05-05T11:22:11.804Z,15.98
2023-05-05T11:24:42.759Z,15.66
2023-05-05T11:27:11.619Z,15.60
2023-05-05T11:30:13.920Z,15.72
2023-05-05T11:32:42.139Z,15.64
2023-05-05T11:35:10.068Z,15.45
2023-05-05T11:37:38.100Z,15.50
2023-05-05T11:40:32.585Z,15.69
2023-05-05T11:43:07.476Z,16.02
2023-05-05T11:45:36.076Z,16.00
2023-05-05T11:48:28.981Z,15.80
2023-05-05T11:50:58.116Z,16.12
2023-05-05T11:53:26.126Z,16.43
2023-05-05T11:56:09.820Z,16.74
2023-05-05T11:58:38.285Z,16.63
2023-05-05T12:01:09.527Z,16.97
2023-05-05T12:03:38.018Z,17.48
2023-05-05T12:06:07.097Z,17.68
2023-05-05T12:08:39.016Z,17.90
2023-05-05T12:11:08.273Z,18.26
2023-05-05T12:13:36.495Z,18.19
2023-05-05T12:16:11.652Z,18.12
2023-05-05T12:18:40.245Z,18.03
2023-05-05T12:21:20.718Z,18.77
2023-05-05T12:23:48.725Z,19.37
2023-05-05T12:26:29.170Z,18.85
2023-05-05T12:29:00.591Z,18.68
2023-05-05T12:31:38.412Z,19.29
2023-05-05T12:34:06.999Z,19.52
2023-05-05T12:36:35.763Z,19.22
2023-05-05T12:39:07.245Z,19.14
2023-05-05T12:41:35.240Z,19.62
2023-05-05T12:44:03.375Z,19.72
2023-05-05T12:46:32.025Z,19.25
2023-05-05T12:49:05.495Z,20.09
2023-05-05T12:51:36.829Z,20.16
2023-05-05T12:54:09.692Z,20.47
2023-05-05T12:56:37.744Z,19.86
2023-05-05T12:59:06.879Z,19.66
2023-05-05T13:01:35.876Z,19.31
2023-05-05T13:04:07.929Z,18.88
2023-05-05T13:06:36.266Z,19.19
2023-05-05T13:09:05.406Z,19.39
2023-05-05T13:11:37.683Z,19.12
2023-05-05T13:14:06.603Z,19.16
2023-05-05T13:16:34.824Z,18.85
2023-05-05T13:19:02.867Z,19.18
2023-05-05T13:21:30.883Z,18.73
2023-05-05T13:24:08.207Z,17.97
2023-05-05T13:26:40.758Z,18.19
2023-05-05T13:29:08.724Z,17.93
2023-05-05T13:31:36.944Z,17.51
2023-05-05T13:34:05.328Z,17.67
2023-05-05T13:36:33.408Z,17.90
2023-05-05T13:39:01.808Z,17.66
2023-05-05T13:41:29.999Z,16.86
2023-05-05T13:43:57.896Z,16.65
2023-05-05T13:46:26.143Z,16.31
2023-05-05T13:48:56.659Z,16.35
2023-05-05T13:51:24.985Z,16.50
2023-05-05T13:53:53.211Z,16.69
2023-05-05T13:56:23.530Z,16.77
2023-05-05T13:58:52.049Z,16.96
2023-05-05T14:01:20.256Z,16.97
2023-05-05T14:03:48.389Z,16.91
2023-05-05T14:06:16.559Z,16.65
2023-05-05T14:08:44.753Z,16.40
2023-05-05T14:11:18.150Z,16.47
2023-05-05T14:13:46.636Z,16.12
2023-05-05T14:16:14.837Z,16.22
2023-05-05T14:18:43.137Z,16.16
2023-05-05T14:21:11.369Z,16.50
2023-05-05T14:23:39.376Z,16.73
2023-05-05T14:26:09.081Z,17.03
2023-05-05T14:28:37.335Z,16.74
2023-05-05T14:31:05.479Z,16.63
2023-05-05T14:33:33.535Z,16.84
2023-05-05T14:36:01.681Z,16.59
2023-05-05T14:38:29.814Z,16.55
2023-05-05T14:40:57.810Z,16.45
2023-05-05T14:43:25.816Z,16.29
2023-05-05T14:45:53.893Z,15.92
2023-05-05T14:48:22.473Z,15.85
2023-05-05T14:50:50.892Z,16.18
2023-05-05T14:53:21.452Z,16.26
2023-05-05T14:55:49.591Z,16.13
2023-05-05T14:58:22.323Z,16.11
2023-05-05T15:00:52.726Z,16.07
2023-05-05T15:03:20.908Z,16.03
2023-05-05T15:05:49.211Z,15.86
2023-05-05T15:08:18.880Z,16.07
2023-05-05T15:10:47.032Z,16.13
2023-05-05T15:13:15.329Z,16.14
2023-05-05T15:15:43.561Z,15.95
2023-05-05T15:18:11.789Z,15.92
2023-05-05T15:20:39.686Z,15.63
2023-05-05T15:23:07.673Z,15.66
2023-05-05T15:25:35.769Z,15.62
2023-05-05T15:28:03.809Z,15.42
2023-05-05T15:30:31.847Z,15.29
2023-05-05T15:32:59.839Z,15.41
2023-05-05T15:35:27.856Z,15.41
2023-05-05T15:37:56.012Z,15.26
2023-05-05T15:40:24.234Z,15.26
2023-05-05T15:42:52.662Z,15.35
2023-05-05T15:45:20.707Z,15.17
2023-05-05T15:47:50.172Z,15.10
2023-05-05T15:50:18.386Z,14.56
2023-05-05T15:52:48.150Z,14.37
2023-05-05T15:55:17.895Z,14.22
2023-05-05T15:57:46.126Z,14.12
2023-05-05T16:00:14.630Z,13.96
2023-05-05T16:02:42.704Z,13.91
2023-05-05T16:05:11.265Z,13.74
2023-05-05T16:07:39.268Z,13.65
2023-05-05T16:10:08.316Z,13.65
2023-05-05T16:12:36.673Z,13.66
2023-05-05T16:15:05.138Z,13.74
2023-05-05T16:17:33.156Z,13.87
2023-05-05T16:20:01.408Z,13.96
2023-05-05T16:22:29.519Z,14.21
2023-05-05T16:24:57.540Z,14.16
2023-05-05T16:27:26.617Z,13.88
2023-05-05T16:29:54.656Z,13.72
2023-05-05T16:32:22.825Z,13.38
2023-05-05T16:34:50.843Z,13.26
2023-05-05T16:37:19.084Z,13.06
2023-05-05T16:39:47.380Z,13.00
2023-05-05T16:42:15.290Z,12.86
2023-05-05T16:44:43.247Z,12.67
2023-05-05T16:47:11.259Z,12.42
2023-05-05T16:49:39.241Z,12.42
2023-05-05T16:52:07.195Z,12.38
2023-05-05T16:54:35.217Z,12.18
2023-05-05T16:57:03.896Z,12.14
2023-05-05T16:59:31.869Z,12.04
2023-05-05T17:01:59.888Z,11.91
2023-05-05T17:04:27.951Z,11.72
2023-05-05T17:06:57.623Z,11.60
2023-05-05T17:09:25.831Z,11.44
2023-05-05T17:11:53.903Z,11.28
2023-05-05T17:14:21.866Z,11.02
2023-05-05T17:16:50.215Z,10.88
2023-05-05T17:19:18.238Z,10.70
2023-05-05T17:21:46.356Z,10.63
2023-05-05T17:24:15.274Z,10.52
2023-05-05T17:26:43.508Z,10.39
2023-05-05T17:29:13.071Z,10.27
2023-05-05T17:31:42.154Z,10.20
2023-05-05T17:34:10.570Z,10.11
2023-05-05T17:36:38.621Z,10.03
2023-05-05T17:39:06.619Z,9.92
2023-05-05T17:41:34.737Z,9.85
2023-05-05T17:44:02.797Z,9.79
2023-05-05T17:46:30.902Z,9.71
2023-05-05T17:48:59.170Z,9.68
2023-05-05T17:51:27.529Z,9.60
2023-05-05T17:53:55.502Z,9.52
2023-05-05T17:56:23.448Z,9.41
2023-05-05T17:58:51.448Z,9.31
2023-05-05T18:01:26.468Z,9.24
2023-05-05T18:03:54.913Z,9.15
2023-05-05T18:06:22.942Z,9.08
2023-05-05T18:08:50.947Z,9.02
2023-05-05T18:11:21.288Z,8.92
2023-05-05T18:13:49.412Z,8.79
2023-05-05T18:16:17.469Z,8.73
2023-05-05T18:18:45.738Z,8.62
2023-05-05T18:21:13.867Z,8.53
2023-05-05T18:23:42.036Z,8.42
2023-05-05T18:26:10.193Z,8.31
2023-05-05T18:28:38.213Z,8.30
2023-05-05T18:31:06.829Z,8.21
2023-05-05T18:33:35.547Z,8.14
2023-05-05T18:36:04.011Z,8.08
2023-05-05T18:38:32.535Z,7.99
2023-05-05T18:41:00.705Z,7.97
2023-05-05T18:43:28.760Z,7.90
2023-05-05T18:45:56.819Z,7.85
2023-05-05T18:48:24.882Z,7.80
2023-05-05T18:50:53.041Z,7.76
2023-05-05T18:53:21.146Z,7.69
2023-05-05T18:55:49.464Z,7.61
2023-05-05T18:58:17.744Z,7.58
2023-05-05T19:00:45.766Z,7.50
2023-05-05T19:03:14.072Z,7.45
2023-05-05T19:05:42.137Z,7.40
2023-05-05T19:08:10.288Z,7.34
2023-05-05T19:10:38.220Z,7.31
2023-05-05T19:13:06.748Z,7.23
2023-05-05T19:15:35.409Z,7.15
2023-05-05T19:18:06.438Z,7.11
2023-05-05T19:20:34.534Z,7.06
2023-05-05T19:23:04.498Z,7.01
2023-05-05T19:25:32.555Z,6.96
2023-05-05T19:28:00.833Z,6.92
2023-05-05T19:30:28.865Z,6.86
2023-05-05T19:32:57.164Z,6.81
2023-05-05T19:35:26.103Z,6.75
2023-05-05T19:37:54.012Z,6.71
2023-05-05T19:40:22.110Z,6.68
2023-05-05T19:42:50.329Z,6.66
2023-05-05T19:45:18.397Z,6.62
2023-05-05T19:47:46.554Z,6.57
2023-05-05T19:50:16.133Z,6.52
2023-05-05T19:52:44.256Z,6.45
2023-05-05T19:55:13.353Z,6.44
2023-05-05T19:57:41.864Z,6.41
2023-05-05T20:00:11.225Z,6.40
2023-05-05T20:02:39.509Z,6.41
2023-05-05T20:05:07.920Z,6.41
2023-05-05T20:07:35.869Z,6.41
2023-05-05T20:10:04.510Z,6.41
2023-05-05T20:12:32.529Z,6.44
2023-05-05T20:15:00.670Z,6.42
2023-05-05T20:17:29.543Z,6.37
2023-05-05T20:19:58.090Z,6.36
2023-05-05T20:22:26.646Z,6.32
2023-05-05T20:24:54.736Z,6.29
2023-05-05T20:27:22.787Z,6.26
2023-05-05T20:29:50.705Z,6.20
2023-05-05T20:32:20.814Z,6.19
2023-05-05T20:34:49.261Z,6.16
2023-05-05T20:37:17.294Z,6.15
2023-05-05T20:39:45.412Z,6.08
2023-05-05T20:42:13.899Z,6.05
2023-05-05T20:44:42.364Z,6.01
2023-05-05T20:47:14.427Z,5.93
2023-05-05T20:49:42.510Z,5.89
2023-05-05T20:52:10.675Z,5.88
2023-05-05T20:54:39.469Z,5.91
2023-05-05T20:57:07.983Z,5.92
2023-05-05T20:59:36.243Z,5.94
2023-05-05T21:02:05.881Z,5.94
2023-05-05T21:04:34.029Z,5.92
2023-05-05T21:07:02.019Z,5.91
2023-05-05T21:09:30.114Z,5.87
2023-05-05T21:11:58.135Z,5.87
2023-05-05T21:14:27.803Z,5.89
2023-05-05T21:16:56.122Z,5.88
2023-05-05T21:19:24.438Z,5.89
2023-05-05T21:21:54.151Z,5.92
2023-05-05T21:24:22.263Z,5.91
2023-05-05T21:26:51.517Z,5.89
2023-05-05T21:29:19.683Z,5.90
2023-05-05T21:31:47.653Z,5.92
2023-05-05T21:34:15.677Z,5.89
2023-05-05T21:36:43.669Z,5.88
2023-05-05T21:39:12.240Z,5.92
2023-05-05T21:41:40.627Z,5.92
2023-05-05T21:44:09.723Z,5.93
2023-05-05T21:46:38.872Z,5.91
2023-05-05T21:49:14.379Z,5.92
2023-05-05T21:51:42.562Z,5.89
2023-05-05T21:54:10.742Z,5.89
2023-05-05T21:56:38.703Z,5.86
2023-05-05T21:59:06.686Z,5.83
2023-05-05T22:01:35.107Z,5.84
2023-05-05T22:04:06.229Z,5.82
2023-05-05T22:06:34.317Z,5.81
2023-05-05T22:09:02.213Z,5.76
2023-05-05T22:11:30.098Z,5.76
2023-05-05T22:13:58.496Z,5.71
2023-05-05T22:16:26.505Z,5.67
2023-05-05T22:18:54.479Z,5.65
2023-05-05T22:21:22.438Z,5.56
2023-05-05T22:23:50.449Z,5.58
2023-05-05T22:26:18.425Z,5.53
2023-05-05T22:28:46.301Z,5.49
2023-05-05T22:31:14.242Z,5.46
2023-05-05T22:33:42.298Z,5.43
2023-05-05T22:36:11.573Z,5.39
2023-05-05T22:38:39.542Z,5.36
2023-05-05T22:41:08.257Z,5.33
2023-05-05T22:43:37.475Z,5.36
2023-05-05T22:46:05.844Z,5.33
2023-05-05T22:48:34.106Z,5.30
2023-05-05T22:51:03.774Z,5.28
2023-05-05T22:53:32.006Z,5.25
2023-05-05T22:56:01.112Z,5.25
2023-05-05T22:58:29.305Z,5.23
2023-05-05T23:00:58.439Z,5.21
2023-05-05T23:03:26.756Z,5.19
2023-05-05T23:05:54.852Z,5.16
2023-05-05T23:08:24.114Z,5.15
2023-05-05T23:10:53.418Z,5.14
2023-05-05T23:13:21.457Z,5.13
2023-05-05T23:15:49.416Z,5.12
2023-05-05T23:18:17.332Z,5.10
2023-05-05T23:20:45.621Z,5.08
2023-05-05T23:23:13.688Z,5.05
2023-05-05T23:25:41.637Z,5.02
2023-05-05T23:28:10.153Z,5.01
2023-05-05T23:30:38.130Z,5.01
2023-05-05T23:33:06.330Z,5.00
2023-05-05T23:35:34.321Z,4.99
2023-05-05T23:38:02.281Z,4.98
2023-05-05T23:40:30.362Z,4.97
2023-05-05T23:42:58.888Z,4.98
2023-05-05T23:45:26.900Z,4.98
2023-05-05T23:47:55.163Z,4.96
2023-05-05T23:50:23.207Z,4.95
2023-05-05T23:52:51.516Z,4.94
2023-05-05T23:55:19.564Z,4.93
2023-05-05T23:57:47.521Z,4.93
